Flight Track Log - Related Links

Times and Time Zones

All times are in EDT time to prevent confusion due to time zone crossing. See the ASQ5685 flight status page for this flight to view local times or setup timezone preferences in your user account.

Time Position Orientation Groundspeed Altitude Reporting Facility
EDT Latitude Longitude Course Direction KTS MPH feet Rate Location/Type
Fri 10:05:42 AM 33.6333 -84.4667 248° West 170 196 2,300  Level Atlanta TRACON
Fri 10:06:42 AM 33.6167 -84.5167 248° West 220 253 3,800 2,300 Climbing Atlanta TRACON
Fri 10:07:42 AM 33.5667 -84.5833 228° Southwest 257 296 6,900 2,900 Climbing Atlanta TRACON
Fri 10:08:42 AM 33.4833 -84.5833 180° South 282 325 9,600 1,878 Climbing Atlanta TRACON
Fri 10:09:53 AM 33.4533 -84.4644 107° East 327 376 11,000 1,191 Climbing Atlanta Center
Fri 10:10:53 AM 33.4536 -84.3375 90° East 350 403 12,200 1,200 Climbing Atlanta Center
Fri 10:11:53 AM 33.5144 -84.2356 54° Northeast 343 395 13,400 1,367 Climbing Atlanta Center
Fri 10:13:53 AM 33.7086 -84.1136 28° Northeast 358 412 16,300 1,433 Climbing Atlanta Center
Fri 10:14:53 AM 33.7817 -84.0114 49° Northeast 374 430 17,700 1,450 Climbing Atlanta Center
Fri 10:15:53 AM 33.8400 -83.8936 59° Northeast 390 449 19,200 1,350 Climbing Atlanta Center
Fri 10:16:53 AM 33.8983 -83.7711 60° Northeast 404 465 20,400 1,200 Climbing Atlanta Center
Fri 10:17:53 AM 33.9669 -83.6556 54° Northeast 416 479 21,600 1,000 Climbing Atlanta Center
Fri 10:18:53 AM 34.0394 -83.5400 53° Northeast 426 490 22,400 800 Climbing Atlanta Center
Fri 10:19:53 AM 34.1142 -83.4242 52° Northeast 433 498 23,200 750 Climbing Atlanta Center
Fri 10:20:53 AM 34.1886 -83.3006 54° Northeast 439 505 23,900 650 Climbing Atlanta Center
Fri 10:21:53 AM 34.2672 -83.1792 52° Northeast 449 517 24,500 600 Climbing Atlanta Center
Fri 10:22:53 AM 34.3456 -83.0525 53° Northeast 455 524 25,100 600 Climbing Atlanta Center
Fri 10:23:53 AM 34.4236 -82.9283 53° Northeast 461 531 25,700 600 Climbing Atlanta Center
Fri 10:24:53 AM 34.5058 -82.7986 52° Northeast 466 536 26,300 600 Climbing Atlanta Center
Fri 10:25:53 AM 34.5839 -82.6689 54° Northeast 466 536 26,900 600 Climbing Atlanta Center
Fri 10:26:53 AM 34.6636 -82.5386 53° Northeast 472 543 27,500 600 Climbing Atlanta Center
Fri 10:27:53 AM 34.7456 -82.4083 53° Northeast 478 550 28,100 600 Climbing Atlanta Center
Fri 10:28:53 AM 34.8250 -82.2753 54° Northeast 478 550 28,700 450 Climbing Atlanta Center
Fri 10:29:53 AM 34.9025 -82.1444 54° Northeast 483 556 29,000 150 Climbing Atlanta Center
Fri 10:30:53 AM 34.9778 -82.0261 52° Northeast 483 556 29,000  Level Atlanta Center
Fri 10:31:53 AM 35.0567 -81.8872 55° Northeast 488 562 29,000  Level Atlanta Center
Fri 10:32:53 AM 35.1333 -81.7428 57° Northeast 498 573 29,000  Level Atlanta Center
Fri 10:33:53 AM 35.2081 -81.6011 57° Northeast 498 573 29,000  Level Atlanta Center
Fri 10:34:53 AM 35.2842 -81.4564 57° Northeast 498 573 29,000  Level Atlanta Center
Fri 10:35:53 AM 35.3583 -81.3114 58° Northeast 498 573 29,000  Level Atlanta Center
Fri 10:36:53 AM 35.4322 -81.1661 58° Northeast 498 573 29,000  Level Atlanta Center
Fri 10:37:53 AM 35.5081 -81.0233 57° Northeast 498 573 29,000  Level Atlanta Center
Fri 10:38:53 AM 35.5836 -80.8800 57° Northeast 503 579 29,000  Level Atlanta Center
Fri 10:39:53 AM 35.6572 -80.7367 58° Northeast 503 579 29,000  Level Atlanta Center
Fri 10:40:53 AM 35.7383 -80.5772 58° Northeast 503 579 29,000  Level Atlanta Center
Fri 10:43:06 AM 35.8856 -80.2911 58° Northeast 490 564 29,000  Level Washington Center
Fri 10:44:11 AM 35.9736 -80.1219 57° Northeast 488 562 29,000  Level Washington Center
Fri 10:45:11 AM 36.0408 -79.9878 58° Northeast 489 563 29,000  Level Washington Center
Fri 10:46:12 AM 36.1186 -79.8500 55° Northeast 488 562 29,000  Level Washington Center
Fri 10:47:15 AM 36.2111 -79.6844 55° Northeast 488 562 29,000  Level Washington Center
Fri 10:48:16 AM 36.2881 -79.5497 55° Northeast 483 556 29,000  Level Washington Center
Fri 10:49:19 AM 36.3653 -79.4108 55° Northeast 483 556 29,000 -378 Level Washington Center
Fri 10:50:23 AM 36.4436 -79.2708 55° Northeast 484 557 28,200 -919 Descending Washington Center
Fri 10:51:23 AM 36.5300 -79.1181 55° Northeast 500 575 27,100 -968 Descending Washington Center
Fri 10:52:27 AM 36.6036 -78.9836 56° Northeast 507 583 26,200 -968 Descending Washington Center
Fri 10:53:27 AM 36.6903 -78.8281 55° Northeast 497 572 25,100 -581 Descending Washington Center
Fri 10:54:31 AM 36.7647 -78.6931 55° Northeast 492 566 25,000 -48 Descending Washington Center
Fri 10:55:32 AM 36.8486 -78.5400 56° Northeast 463 533 25,000  Level Washington Center
Fri 10:56:35 AM 36.9097 -78.4289 55° Northeast 456 525 25,000  Level Washington Center
Fri 10:57:36 AM 36.9850 -78.2883 56° Northeast 454 522 25,000  Level Washington Center
Fri 10:58:40 AM 37.0914 -78.1675 42° Northeast 455 524 25,000 -339 Level Washington Center
Fri 10:59:40 AM 37.1897 -78.0908 32° Northeast 447 514 24,300 -1,073 Descending Washington Center
Fri 11:00:43 AM 37.2953 -78.0086 32° Northeast 447 514 22,800 -1,113 Descending Washington Center
Fri 11:01:44 AM 37.3964 -77.9314 31° Northeast 432 497 22,000 -432 Descending Washington Center
Fri 11:02:48 AM 37.5144 -77.8400 32° Northeast 419 482 21,900 -576 Descending Washington Center
Fri 11:03:49 AM 37.6217 -77.7753 26° Northeast 423 487 20,800 -1,355 Descending Washington Center
Fri 11:05:54 AM 37.8211 -77.6572 25° Northeast 396 456 17,700 -1,719 Descending Washington Center
Fri 11:06:54 AM 37.9169 -77.6033 24° Northeast 383 441 15,500 -2,129 Descending Washington Center
Fri 11:07:58 AM 38.0092 -77.5467 26° Northeast 376 433 13,300 -2,304 Descending Washington Center
Fri 11:08:59 AM 38.1133 -77.4856 25° Northeast 357 411 10,700 -1,584 Descending Washington Center
Fri 11:10:03 AM 38.1964 -77.4356 25° Northeast 339 390 10,000 -384 Descending Washington Center
Fri 11:11:04 AM 38.2772 -77.3878 25° Northeast 329 379 9,900 -787 Descending Washington Center
Fri 11:12:05 AM 38.3614 -77.3539 18° North 324 373 8,400 -1,452 Descending Washington Center
Fri 11:13:08 AM 38.4461 -77.3578 358° North 312 359 6,900 -1,559 Descending Washington Center
Fri 11:14:12 AM 38.5422 -77.3611 358° North 295 339 5,100 -1,016 Descending Washington Center
Fri 11:15:12 AM 38.6242 -77.3631 359° North 295 339 4,800 -500 Descending Washington Center
Fri 11:16:00 AM 38.7000 -77.3667 358° North 286 329 4,200 -444 Descending Potomac TRACON
Fri 11:17:00 AM 38.7833 -77.3500 North 291 335 4,000 -105 Descending Potomac TRACON
Fri 11:17:54 AM 38.8500 -77.3500 360° North 293 337 4,000  Level Potomac TRACON
Fri 11:18:55 AM 38.9333 -77.3500 360° North 287 330 4,000 -331 Level Potomac TRACON
Fri 11:20:01 AM 39.0000 -77.3500 360° North 226 260 3,300 -619 Descending Potomac TRACON
Fri 11:21:01 AM 39.0667 -77.3500 360° North 205 236 2,700 -684 Descending Potomac TRACON
Fri 11:21:55 AM 39.0833 -77.3833 303° West 193 222 2,000 -368 Descending Potomac TRACON
Fri 11:22:55 AM 39.0667 -77.4333 247° West 170 196 2,000 -100 Level Potomac TRACON
Fri 11:23:55 AM 39.0333 -77.4333 180° South 133 153 1,800 -470 Descending Potomac TRACON
Fri 11:24:50 AM 39.0000 -77.4333 180° South 139 160 1,100 -556 Descending Potomac TRACON
Fri 11:26:37 AM 38.9311 -77.4364 182° South 138 159 300 -449 Descending Washington Center

Login

Don't have an account? Register now (free) for customized features, flight alerts, and more!